createdAt,value
2022-09-12T00:14:45.378Z,1978.81
2022-09-12T00:20:18.513Z,1935.57
2022-09-12T00:25:49.793Z,1935.57
2022-09-12T00:36:50.606Z,1978.81
2022-09-12T00:42:21.997Z,1935.57
2022-09-12T00:47:53.600Z,1935.57
2022-09-12T00:53:25.002Z,1935.57
2022-09-12T00:58:56.520Z,1978.81
2022-09-12T01:04:28.010Z,1935.57
2022-09-12T01:09:59.362Z,1935.57
2022-09-12T01:15:30.837Z,1935.57
2022-09-12T01:21:02.635Z,1935.57
2022-09-12T01:26:33.905Z,1935.57
2022-09-12T01:32:05.715Z,1935.57
2022-09-12T01:37:37.277Z,1935.57
2022-09-12T01:43:08.647Z,1935.57
2022-09-12T01:48:40.158Z,1935.57
2022-09-12T01:54:11.953Z,1935.57
2022-09-12T01:59:43.442Z,1935.57
2022-09-12T02:05:14.929Z,1935.57
2022-09-12T02:10:46.181Z,1935.57
2022-09-12T02:16:18.012Z,1978.81
2022-09-12T02:21:49.419Z,1935.57
2022-09-12T02:27:21.017Z,1935.57
2022-09-12T02:32:52.381Z,1978.81
2022-09-12T02:38:23.855Z,1935.57
2022-09-12T02:43:55.221Z,1935.57
2022-09-12T02:49:26.565Z,1978.81
2022-09-12T02:54:58.286Z,1935.57
2022-09-12T03:00:29.713Z,1935.57
2022-09-12T03:06:00.988Z,1935.57
2022-09-12T03:11:32.358Z,1935.57
2022-09-12T03:17:03.639Z,1935.57
2022-09-12T03:22:35.147Z,1935.57
2022-09-12T03:33:35.919Z,1935.57
2022-09-12T03:39:07.187Z,1935.57
2022-09-12T03:44:38.635Z,1978.81
2022-09-12T03:50:09.995Z,1935.57
2022-09-12T03:55:41.772Z,1935.57
2022-09-12T04:01:13.178Z,1935.57
2022-09-12T04:06:44.495Z,1978.81
2022-09-12T04:17:45.357Z,1935.57
2022-09-12T04:23:16.825Z,1935.57
2022-09-12T04:28:48.473Z,1935.57
2022-09-12T04:34:20.017Z,1935.57
2022-09-12T04:39:51.741Z,1935.57
2022-09-12T04:45:23.299Z,1935.57
2022-09-12T04:50:54.990Z,1893.49
2022-09-12T05:01:55.816Z,1935.57
2022-09-12T05:07:27.506Z,1935.57
2022-09-12T05:12:58.888Z,1935.57
2022-09-12T05:18:30.576Z,1978.81
2022-09-12T05:24:01.981Z,1978.81
2022-09-12T05:29:33.293Z,1978.81
2022-09-12T05:35:05.000Z,2023.24
2022-09-12T05:40:36.874Z,2023.24
2022-09-12T05:46:08.607Z,2068.90
2022-09-12T05:51:40.397Z,2023.24
2022-09-12T05:57:12.083Z,2115.83
2022-09-12T06:02:43.572Z,2023.24
2022-09-12T06:08:15.245Z,2115.83
2022-09-12T06:13:46.682Z,2115.83
2022-09-12T06:19:18.364Z,2115.83
2022-09-12T06:24:50.817Z,2115.83
2022-09-12T06:30:25.356Z,2115.83
2022-09-12T06:35:53.708Z,2115.83
2022-09-12T06:41:25.112Z,2115.83
2022-09-12T06:46:56.466Z,2115.83
2022-09-12T06:52:28.251Z,2115.83
2022-09-12T06:54:39.907Z,2115.83
2022-09-12T07:00:11.103Z,2115.83
2022-09-12T07:05:42.519Z,2164.08
2022-09-12T07:11:13.747Z,2115.83
2022-09-12T07:16:45.280Z,2115.83
2022-09-12T07:27:50.595Z,2164.08
2022-09-12T07:33:18.953Z,2115.83
2022-09-12T07:38:52.105Z,2213.69
2022-09-12T07:44:22.125Z,2213.69
2022-09-12T07:49:53.713Z,2164.08
2022-09-12T07:55:25.126Z,2164.08
2022-09-12T08:00:56.927Z,2213.69
2022-09-12T08:06:28.906Z,2164.08
2022-09-12T08:12:00.502Z,2213.69
2022-09-12T08:17:31.787Z,2164.08
2022-09-12T08:23:03.051Z,2115.83
2022-09-12T08:28:34.804Z,2115.83
2022-09-12T08:34:06.203Z,2115.83
2022-09-12T08:45:07.214Z,2164.08
2022-09-12T08:50:38.761Z,2115.83
2022-09-12T08:56:10.214Z,2068.90
2022-09-12T09:01:41.966Z,2115.83
2022-09-12T09:07:13.750Z,2115.83
2022-09-12T09:12:45.478Z,2068.90
2022-09-12T09:18:16.733Z,2115.83
2022-09-12T09:23:48.068Z,2115.83
2022-09-12T09:29:19.297Z,2068.90
2022-09-12T09:34:50.612Z,2068.90
2022-09-12T09:40:22.271Z,2068.90
2022-09-12T09:45:53.660Z,2068.90
2022-09-12T09:51:25.090Z,2068.90
2022-09-12T09:56:56.385Z,1978.81
2022-09-12T10:02:27.672Z,1978.81
2022-09-12T10:07:59.278Z,2023.24
2022-09-12T10:13:31.031Z,2068.90
2022-09-12T10:19:02.795Z,2023.24
2022-09-12T10:24:33.956Z,1978.81
2022-09-12T10:30:05.346Z,2023.24
2022-09-12T10:35:36.678Z,2023.24
2022-09-12T10:41:08.380Z,2023.24
2022-09-12T10:46:39.761Z,2023.24
2022-09-12T10:52:11.185Z,2023.24
2022-09-12T10:57:42.455Z,2068.90
2022-09-12T11:03:13.824Z,2023.24
2022-09-12T11:08:45.482Z,2068.90
2022-09-12T11:14:16.707Z,2068.90
2022-09-12T11:19:48.014Z,2023.24
2022-09-12T11:25:19.501Z,2023.24
2022-09-12T11:30:50.807Z,2023.24
2022-09-12T11:36:22.020Z,2023.24
2022-09-12T11:41:53.367Z,2023.24
2022-09-12T11:47:24.704Z,1978.81
2022-09-12T12:03:55.350Z,2023.24
2022-09-12T12:09:26.972Z,2023.24
2022-09-12T12:17:19.115Z,2023.24
2022-09-12T12:22:50.789Z,2023.24
2022-09-12T12:28:22.739Z,2068.90
2022-09-12T12:33:54.238Z,2023.24
2022-09-12T12:44:59.277Z,2068.90
2022-09-12T12:50:30.663Z,2023.24
2022-09-12T12:56:02.538Z,2068.90
2022-09-12T13:01:34.286Z,2023.24
2022-09-12T13:07:08.131Z,2068.90
2022-09-12T13:12:37.235Z,2068.90
2022-09-12T13:18:08.803Z,2068.90
2022-09-12T13:23:40.550Z,2023.24
2022-09-12T13:29:12.264Z,2023.24
2022-09-12T13:34:43.851Z,2068.90
2022-09-12T13:40:15.202Z,2068.90
2022-09-12T13:45:47.230Z,2023.24
2022-09-12T13:51:18.927Z,2068.90
2022-09-12T13:56:50.607Z,2023.24
2022-09-12T14:02:21.918Z,2023.24
2022-09-12T14:07:53.279Z,2068.90
2022-09-12T14:13:24.814Z,3577.29
2022-09-12T14:18:56.111Z,3487.94
2022-09-12T14:24:27.588Z,3577.29
2022-09-12T14:29:58.731Z,3487.94
2022-09-12T14:37:50.346Z,3577.29
2022-09-12T14:43:21.149Z,3577.29
2022-09-12T14:48:52.415Z,2023.24
2022-09-12T14:54:23.891Z,2023.24
2022-09-12T14:59:55.284Z,2023.24
2022-09-12T15:05:27.197Z,2023.24
2022-09-12T15:10:58.818Z,2023.24
2022-09-12T15:16:30.468Z,2023.24
2022-09-12T15:22:01.632Z,2023.24
2022-09-12T15:27:33.042Z,2023.24
2022-09-12T15:33:04.614Z,2023.24
2022-09-12T15:38:36.360Z,1978.81
2022-09-12T15:44:08.184Z,2023.24
2022-09-12T15:49:39.825Z,2023.24
2022-09-12T15:55:11.127Z,2023.24
2022-09-12T16:00:42.522Z,2023.24
2022-09-12T16:06:13.997Z,2023.24
2022-09-12T16:11:45.750Z,2023.24
2022-09-12T16:17:17.518Z,1978.81
2022-09-12T16:22:49.311Z,2023.24
2022-09-12T16:28:20.783Z,2023.24
2022-09-12T16:33:52.331Z,2023.24
2022-09-12T16:39:23.870Z,1978.81
2022-09-12T16:44:56.013Z,2023.24
2022-09-12T16:50:28.028Z,2023.24
2022-09-12T16:55:59.745Z,2023.24
2022-09-12T17:01:31.400Z,2023.24
2022-09-12T17:07:02.768Z,2023.24
2022-09-12T17:12:34.259Z,2023.24
2022-09-12T17:18:05.897Z,2023.24
2022-09-12T17:23:37.324Z,2023.24
2022-09-12T17:29:08.819Z,2023.24
2022-09-12T17:34:40.333Z,1978.81
2022-09-12T17:40:12.047Z,1978.81
2022-09-12T17:45:44.043Z,2023.24
2022-09-12T17:51:15.631Z,2023.24
2022-09-12T17:56:47.326Z,1978.81
2022-09-12T18:02:18.966Z,1978.81
2022-09-12T18:07:50.145Z,3487.94
2022-09-12T18:13:22.253Z,3401.32
2022-09-12T18:18:52.677Z,3487.94
2022-09-12T18:24:23.953Z,1978.81
2022-09-12T18:30:17.520Z,2023.24
2022-09-12T18:35:27.085Z,2023.24
2022-09-12T18:40:58.760Z,2023.24
2022-09-12T18:46:30.836Z,1978.81
2022-09-12T18:52:02.044Z,2023.24
2022-09-12T18:57:33.550Z,2023.24
2022-09-12T19:05:26.296Z,2023.24
2022-09-12T19:10:58.703Z,1978.81
2022-09-12T19:16:30.026Z,1978.81
2022-09-12T19:22:01.316Z,2023.24
2022-09-12T19:27:32.746Z,2023.24
2022-09-12T19:33:04.093Z,2023.24
2022-09-12T19:44:08.222Z,1978.81
2022-09-12T19:57:31.290Z,2023.24
2022-09-12T20:03:02.888Z,3401.32
2022-09-12T20:14:05.987Z,3401.32
2022-09-12T20:19:37.596Z,3487.94
2022-09-12T20:25:08.925Z,2023.24
2022-09-12T20:30:40.344Z,1978.81
2022-09-12T20:36:11.622Z,1978.81
2022-09-12T20:41:43.433Z,1978.81
2022-09-12T20:47:15.038Z,2023.24
2022-09-12T20:52:46.689Z,1935.57
2022-09-12T20:58:18.303Z,1978.81
2022-09-12T21:03:50.002Z,1978.81
2022-09-12T21:09:21.883Z,1935.57
2022-09-12T21:14:53.645Z,1978.81
2022-09-12T21:20:25.348Z,1978.81
2022-09-12T21:25:57.180Z,1978.81
2022-09-12T21:31:28.917Z,1978.81
2022-09-12T21:37:02.460Z,1978.81
2022-09-12T21:42:33.949Z,1978.81
2022-09-12T21:48:05.718Z,1978.81
2022-09-12T21:53:37.360Z,1978.81
2022-09-12T21:59:08.832Z,1978.81
2022-09-12T22:04:40.534Z,1978.81
2022-09-12T22:10:12.401Z,1978.81
2022-09-12T22:15:43.889Z,1978.81
2022-09-12T22:21:15.153Z,1978.81
2022-09-12T22:26:46.942Z,1978.81
2022-09-12T22:37:50.349Z,1935.57
2022-09-12T22:43:21.687Z,2023.24
2022-09-12T22:48:53.162Z,1978.81
2022-09-12T22:54:25.225Z,2023.24
2022-09-12T22:59:56.452Z,1978.81
2022-09-12T23:05:27.951Z,1978.81
2022-09-12T23:10:59.479Z,1978.81
2022-09-12T23:16:30.981Z,1978.81
2022-09-12T23:22:02.295Z,1935.57
2022-09-12T23:27:33.482Z,1978.81
2022-09-12T23:33:05.227Z,1978.81
2022-09-12T23:38:36.734Z,1978.81
2022-09-12T23:44:07.876Z,1935.57
2022-09-12T23:49:39.448Z,1935.57
2022-09-12T23:55:11.380Z,1978.81
